EKBI/BLL METAR and TAF weather

Enter ICAO airport designator
Station Type Date Time Source
EKBI METAR 2018/04/21 11:20 UTC NOAA

EKBI 211120Z AUTO 26013KT 9999NDV FEW044/// 16/04 Q1021


Station Type Date Time Source
EKBI Decoded METAR 2018/04/21 11:20 UTC NOAA

Billund Lufthavn, Denmark (EKBI) 55-44N 009-10E 79M
Apr 21, 2018 - 07:20 AM EDT / 2018.04.21 1120 UTC
Wind: from the W (260 degrees) at 15 MPH (13 KT):0
Sky conditions: mostly clear
Temperature: 60 F (16 C)
Dew Point: 39 F (4 C)
Relative Humidity: 44%
Pressure (altimeter): 30.15 in. Hg (1021 hPa)
ob: EKBI 211120Z AUTO 26013KT 9999NDV FEW044/// 16/04 Q1021
cycle: 11

Station Type Date Time Source
EKBI TAF 2018/04/21 12:18 UTC NOAA

TAF EKBI 211104Z 2112/2212 29010KT 9999 FEW040
BECMG 2200/2202 VRB03KT
TEMPO 2200/2207 0300 FG BKN002
BECMG 2210/2212 14012KT


Example: see airport list